Time;durP1;ratioP1;P1;durP2;ratioP2;P2;SDS_P1;SDS_P2;PMS_P1;PMS_P2;Temp;Humidity;BMP_temperature;BMP_pressure;BME280_temperature;BME280_humidity;BME280_pressure;Samples;Min_cycle;Max_cycle;Signal;HPM_P1;HPM_P2
2022/05/05 00:00:55;;;;;;;11.10;6.93;;;;;;;9.44;100.00;95112.91;5089203;28;20281;-80
2022/05/05 00:03:21;;;;;;;10.60;7.73;;;;;;;9.44;100.00;95101.72;5089042;28;20196;-80
2022/05/05 00:05:48;;;;;;;12.73;8.20;;;;;;;9.58;100.00;95106.72;5088086;28;20224;-80
2022/05/05 00:08:15;;;;;;;12.07;8.30;;;;;;;9.68;100.00;95101.13;5088062;28;20204;-79
2022/05/05 00:16:12;;;;;;;14.70;7.80;;;;;;;9.77;100.00;95092.16;5088399;28;20239;-77
2022/05/05 00:18:39;;;;;;;11.97;7.43;;;;;;;9.86;100.00;95103.91;5089083;28;20718;-79
2022/05/05 00:21:06;;;;;;;10.40;7.40;;;;;;;9.82;100.00;95097.53;5089272;28;20228;-80
2022/05/05 00:23:33;;;;;;;17.57;8.10;;;;;;;9.88;100.00;95101.09;5089206;28;20209;-79
2022/05/05 00:26:00;;;;;;;11.63;7.97;;;;;;;9.84;100.00;95103.31;5091658;28;20208;-79
2022/05/05 00:28:28;;;;;;;11.97;7.07;;;;;;;9.79;100.00;95100.53;5093042;28;20200;-78
2022/05/05 00:30:55;;;;;;;15.47;7.47;;;;;;;9.78;100.00;95092.94;5091921;28;20207;-78
2022/05/05 00:33:22;;;;;;;14.27;7.60;;;;;;;9.78;100.00;95101.53;5091950;28;20197;-79
2022/05/05 00:35:49;;;;;;;14.80;8.00;;;;;;;9.74;100.00;95102.94;5091221;28;20708;-78
2022/05/05 00:38:16;;;;;;;14.13;7.97;;;;;;;9.68;100.00;95106.31;5092181;28;20197;-80
2022/05/05 00:40:45;;;;;;;11.17;7.33;;;;;;;9.59;100.00;95097.16;5092478;28;20269;-81
2022/05/05 00:43:13;;;;;;;14.67;7.77;;;;;;;9.61;100.00;95097.72;5092183;28;20672;-80
2022/05/05 00:45:42;;;;;;;14.27;8.73;;;;;;;9.58;100.00;95109.31;5092674;28;20672;-81
2022/05/05 00:48:12;;;;;;;17.83;9.83;;;;;;;9.53;100.00;95097.94;5089491;28;20625;-81
2022/05/05 00:50:39;;;;;;;15.40;8.93;;;;;;;9.50;100.00;95099.16;5092734;28;20566;-81
2022/05/05 00:53:06;;;;;;;14.23;8.90;;;;;;;9.52;100.00;95098.97;5092635;28;20199;-81
2022/05/05 00:55:34;;;;;;;14.57;8.70;;;;;;;9.50;100.00;95100.94;5092175;28;20291;-82
2022/05/05 00:58:01;;;;;;;11.03;8.07;;;;;;;9.44;100.00;95091.34;5091925;28;20215;-81
2022/05/05 01:00:29;;;;;;;13.23;8.40;;;;;;;9.49;100.00;95094.97;5092017;28;20215;-80
2022/05/05 01:02:59;;;;;;;19.47;8.87;;;;;;;9.44;100.00;95099.13;5091401;28;20541;-79
2022/05/05 01:05:28;;;;;;;15.23;8.90;;;;;;;9.09;100.00;95104.50;5091524;28;20204;-79
2022/05/05 01:07:57;;;;;;;17.43;7.93;;;;;;;8.64;100.00;95097.44;5091513;28;20196;-79
2022/05/05 01:10:24;;;;;;;13.13;7.70;;;;;;;8.38;100.00;95087.78;5091569;28;20671;-80
2022/05/05 01:12:51;;;;;;;12.77;8.10;;;;;;;8.35;100.00;95093.34;5091179;28;20203;-80
2022/05/05 01:15:19;;;;;;;13.47;8.27;;;;;;;8.56;100.00;95095.00;5091646;28;20657;-82
2022/05/05 01:17:46;;;;;;;13.53;6.67;;;;;;;8.64;100.00;95092.25;5091176;28;20235;-81
2022/05/05 01:20:15;;;;;;;9.97;6.73;;;;;;;8.71;100.00;95085.31;5091556;28;20211;-80
2022/05/05 01:22:44;;;;;;;12.57;6.83;;;;;;;8.88;100.00;95089.13;5091250;28;20204;-81
2022/05/05 01:28:15;;;;;;;13.87;7.97;;;;;;;8.90;100.00;95083.72;5091140;28;20275;-80
2022/05/05 01:30:45;;;;;;;15.50;8.13;;;;;;;9.06;100.00;95104.13;5086140;28;20204;-78
2022/05/05 01:33:14;;;;;;;14.47;8.23;;;;;;;9.13;100.00;95105.72;5089393;28;20274;-78
2022/05/05 01:35:41;;;;;;;18.33;8.90;;;;;;;9.13;100.00;95107.50;5088676;28;20193;-79
2022/05/05 01:38:11;;;;;;;17.93;8.30;;;;;;;9.09;100.00;95099.31;5089145;28;20204;-79
2022/05/05 01:40:39;;;;;;;12.47;7.87;;;;;;;9.13;100.00;95112.69;5087762;28;20201;-78
2022/05/05 01:43:07;;;;;;;19.03;10.43;;;;;;;9.10;100.00;95111.28;5089614;28;20568;-78
2022/05/05 01:45:36;;;;;;;23.13;11.70;;;;;;;9.04;100.00;95111.28;5090119;28;20193;-80
2022/05/05 01:48:04;;;;;;;21.83;12.43;;;;;;;9.03;100.00;95115.66;5090713;28;20197;-80
2022/05/05 01:50:31;;;;;;;30.53;13.60;;;;;;;9.04;100.00;95112.06;5090715;28;20283;-81
2022/05/05 01:53:00;;;;;;;24.93;12.90;;;;;;;8.99;100.00;95103.28;5090025;28;20300;-83
2022/05/05 01:55:30;;;;;;;23.90;13.10;;;;;;;8.91;100.00;95103.47;5090363;28;20207;-81
2022/05/05 01:57:59;;;;;;;26.07;14.57;;;;;;;8.96;100.00;95114.84;5090599;28;20703;-81
2022/05/05 02:00:26;;;;;;;25.83;13.43;;;;;;;8.87;100.00;95116.03;5087126;28;21058;-79
2022/05/05 02:02:54;;;;;;;27.40;13.73;;;;;;;8.92;100.00;95124.00;5088927;28;20219;-79
2022/05/05 02:05:20;;;;;;;25.17;14.43;;;;;;;8.88;100.00;95116.84;5089394;28;20564;-78
2022/05/05 02:07:48;;;;;;;29.00;14.50;;;;;;;8.85;100.00;95118.03;5089053;28;20197;-78
2022/05/05 02:10:16;;;;;;;25.17;13.50;;;;;;;8.77;100.00;95110.44;5089111;28;20606;-78
2022/05/05 02:12:45;;;;;;;22.40;12.07;;;;;;;8.82;100.00;95117.63;5088710;28;20228;-79
2022/05/05 02:15:14;;;;;;;22.77;12.27;;;;;;;8.81;100.00;95122.00;5089186;28;20201;-79
2022/05/05 02:17:43;;;;;;;19.97;10.70;;;;;;;8.82;100.00;95123.59;5089007;28;20253;-79
2022/05/05 02:20:12;;;;;;;17.43;11.33;;;;;;;8.77;100.00;95114.81;5086128;28;20590;-79
2022/05/05 02:22:39;;;;;;;23.60;11.33;;;;;;;8.46;100.00;95123.06;5089508;28;20208;-79
2022/05/05 02:25:07;;;;;;;17.13;10.63;;;;;;;8.02;100.00;95124.19;5089120;28;20203;-79
2022/05/05 02:27:48;;;;;;;19.03;10.90;;;;;;;7.89;100.00;95123.31;5089579;28;20276;-79
2022/05/05 02:30:15;;;;;;;19.00;10.73;;;;;;;7.99;100.00;95118.63;5085327;28;20228;-79
2022/05/05 02:32:43;;;;;;;18.37;10.97;;;;;;;8.15;100.00;95125.25;5088730;28;20217;-80
2022/05/05 02:35:10;;;;;;;21.27;11.43;;;;;;;8.32;100.00;95127.38;5085910;28;20196;-79
2022/05/05 02:40:22;;;;;;;14.67;9.50;;;;;;;8.51;100.00;95128.47;5087420;28;20279;-79
2022/05/05 02:42:50;;;;;;;13.97;8.40;;;;;;;8.54;100.00;95134.03;5087598;28;20260;-79
2022/05/05 02:45:17;;;;;;;11.40;7.70;;;;;;;8.60;100.00;95129.88;5086512;28;20612;-78
2022/05/05 02:47:45;;;;;;;10.33;6.87;;;;;;;8.64;100.00;95132.88;5086051;28;20208;-78
2022/05/05 02:50:12;;;;;;;11.27;7.23;;;;;;;8.77;100.00;95135.53;5085866;28;20216;-79
2022/05/05 02:52:39;;;;;;;12.73;7.90;;;;;;;8.81;100.00;95136.72;5085552;28;20212;-79
2022/05/05 02:55:06;;;;;;;15.83;8.87;;;;;;;8.74;100.00;95141.13;5088703;28;20208;-78
2022/05/05 02:57:33;;;;;;;14.87;9.20;;;;;;;8.76;100.00;95146.88;5088830;28;20204;-80
2022/05/05 03:00:02;;;;;;;16.70;9.73;;;;;;;8.82;100.00;95153.91;5088479;28;20196;-80
2022/05/05 03:02:31;;;;;;;16.67;9.83;;;;;;;8.81;100.00;95152.28;5088129;28;20212;-82
2022/05/05 03:04:58;;;;;;;15.90;9.17;;;;;;;8.80;100.00;95156.66;5087327;28;20196;-80
2022/05/05 03:07:25;;;;;;;15.67;8.80;;;;;;;8.84;100.00;95160.47;5087574;28;20200;-78
2022/05/05 03:09:51;;;;;;;16.23;9.37;;;;;;;8.88;100.00;95161.69;5087005;28;20192;-78
2022/05/05 03:12:18;;;;;;;15.87;9.63;;;;;;;8.86;100.00;95168.06;5087985;28;20216;-78
2022/05/05 03:14:46;;;;;;;18.03;9.93;;;;;;;8.94;100.00;95175.66;5087131;28;20207;-78
2022/05/05 03:17:15;;;;;;;16.70;10.10;;;;;;;8.85;100.00;95169.84;5087916;28;20247;-77
2022/05/05 03:19:42;;;;;;;17.50;10.57;;;;;;;8.89;100.00;95176.22;5087040;28;20200;-78
2022/05/05 03:22:09;;;;;;;23.60;10.13;;;;;;;8.89;100.00;95165.88;5086934;28;20193;-78
2022/05/05 03:24:36;;;;;;;22.53;10.90;;;;;;;8.84;100.00;95170.84;5087005;28;20196;-78
2022/05/05 03:27:04;;;;;;;19.80;11.23;;;;;;;8.64;100.00;95169.97;5087535;28;20717;-78
2022/05/05 03:29:32;;;;;;;23.77;11.20;;;;;;;8.59;100.00;95168.94;5087082;28;20201;-77
2022/05/05 03:31:59;;;;;;;21.97;12.03;;;;;;;8.39;100.00;95164.47;5087428;28;20311;-78
2022/05/05 03:34:27;;;;;;;29.77;12.87;;;;;;;8.21;100.00;95163.34;5087993;28;20250;-78
2022/05/05 03:36:54;;;;;;;22.77;12.27;;;;;;;8.22;100.00;95170.94;5087082;28;20197;-78
2022/05/05 03:39:21;;;;;;;26.17;12.83;;;;;;;8.02;100.00;95171.78;5087562;28;20197;-78
2022/05/05 03:41:47;;;;;;;29.50;13.53;;;;;;;7.82;100.00;95166.47;5087046;28;20189;-78
2022/05/05 03:44:14;;;;;;;52.23;14.20;;;;;;;7.70;100.00;95162.81;5087468;28;20197;-78
2022/05/05 03:46:41;;;;;;;35.10;14.40;;;;;;;7.89;100.00;95170.72;5087445;28;20207;-79
2022/05/05 03:49:08;;;;;;;33.27;14.53;;;;;;;8.04;100.00;95174.97;5088697;28;20222;-78
2022/05/05 03:51:36;;;;;;;32.90;15.40;;;;;;;8.20;100.00;95174.66;5088373;28;20216;-78
2022/05/05 03:54:03;;;;;;;35.53;14.97;;;;;;;8.36;100.00;95179.59;5087778;28;20208;-77
2022/05/05 03:56:30;;;;;;;33.23;15.13;;;;;;;8.42;100.00;95174.47;5087851;28;20210;-80
2022/05/05 03:58:57;;;;;;;30.50;15.53;;;;;;;8.48;100.00;95184.03;5087649;28;20189;-80
2022/05/05 04:01:23;;;;;;;32.33;15.80;;;;;;;8.62;100.00;95182.31;5091888;28;20197;-80
2022/05/05 04:03:50;;;;;;;26.87;14.47;;;;;;;8.72;100.00;95182.75;5092168;28;20584;-79
2022/05/05 04:06:19;;;;;;;32.93;15.97;;;;;;;8.75;100.00;95184.16;5092303;28;20204;-80
2022/05/05 04:08:48;;;;;;;33.67;16.00;;;;;;;8.78;100.00;95197.53;5091923;28;20216;-81
2022/05/05 04:11:15;;;;;;;30.80;16.70;;;;;;;8.83;100.00;95199.56;5091601;28;20193;-79
2022/05/05 04:13:42;;;;;;;30.13;16.30;;;;;;;8.86;100.00;95201.75;5091551;28;20230;-78
2022/05/05 04:16:09;;;;;;;32.17;16.63;;;;;;;8.77;100.00;95208.91;5091158;28;20197;-78
2022/05/05 04:18:36;;;;;;;34.90;17.23;;;;;;;8.79;100.00;95217.28;5089051;28;20228;-78
2022/05/05 04:21:03;;;;;;;34.50;16.37;;;;;;;8.83;100.00;95217.69;5090859;28;21164;-79
2022/05/05 04:23:30;;;;;;;38.13;16.13;;;;;;;8.87;100.00;95213.72;5091052;28;20197;-70
2022/05/05 04:25:58;;;;;;;27.93;15.67;;;;;;;8.83;100.00;95213.28;5089748;28;20270;-72
2022/05/05 04:28:25;;;;;;;28.00;15.40;;;;;;;8.86;100.00;95209.53;5090381;28;20192;-71
2022/05/05 04:30:52;;;;;;;29.10;16.03;;;;;;;8.87;100.00;95216.31;5090448;28;20610;-73
2022/05/05 04:33:19;;;;;;;37.67;17.53;;;;;;;8.91;100.00;95215.75;5089244;28;20572;-71
2022/05/05 04:35:46;;;;;;;35.27;17.93;;;;;;;8.71;100.00;95220.03;5089916;28;20659;-72
2022/05/05 04:38:14;;;;;;;43.17;18.03;;;;;;;8.76;100.00;95219.44;5087566;28;20228;-72
2022/05/05 04:40:41;;;;;;;33.60;17.83;;;;;;;8.78;100.00;95222.63;5090887;28;20189;-73
2022/05/05 04:43:09;;;;;;;33.67;17.33;;;;;;;8.78;100.00;95212.28;5087856;28;20811;-72
2022/05/05 04:45:36;;;;;;;30.77;16.53;;;;;;;8.82;100.00;95214.31;5088286;28;20288;-71
2022/05/05 04:48:03;;;;;;;35.00;17.50;;;;;;;8.88;100.00;95208.34;5090769;28;20313;-74
2022/05/05 04:50:30;;;;;;;31.90;16.37;;;;;;;8.69;100.00;95216.00;5090374;28;20209;-72
2022/05/05 04:52:57;;;;;;;27.47;14.97;;;;;;;8.33;100.00;95213.63;5048512;28;20236;-70
2022/05/05 04:55:24;;;;;;;27.80;14.57;;;;;;;8.14;100.00;95216.88;5086809;28;20197;-72
2022/05/05 04:57:50;;;;;;;31.37;15.97;;;;;;;8.26;100.00;95215.34;5089892;28;20196;-72
2022/05/05 05:00:19;;;;;;;27.90;15.83;;;;;;;8.32;100.00;95223.19;5089579;28;20652;-72
2022/05/05 05:02:46;;;;;;;29.93;15.73;;;;;;;8.52;100.00;95226.69;5089662;28;20220;-72
2022/05/05 05:05:13;;;;;;;29.53;15.80;;;;;;;8.64;100.00;95231.34;5089797;28;20648;-72
2022/05/05 05:07:40;;;;;;;34.43;17.30;;;;;;;8.69;100.00;95228.97;5089304;28;20201;-72
2022/05/05 05:10:08;;;;;;;37.07;18.80;;;;;;;8.54;100.00;95227.31;5089768;28;20655;-71
2022/05/05 05:12:35;;;;;;;39.33;19.20;;;;;;;8.44;100.00;95231.22;5089360;28;20224;-70
2022/05/05 05:15:02;;;;;;;34.33;18.27;;;;;;;8.37;100.00;95214.84;5087244;28;20203;-71
2022/05/05 05:17:30;;;;;;;31.47;18.37;;;;;;;8.29;100.00;95227.94;5088909;28;20273;-72
2022/05/05 05:19:57;;;;;;;34.10;17.97;;;;;;;8.30;100.00;95224.38;5087689;28;20648;-72
2022/05/05 05:22:24;;;;;;;36.13;19.03;;;;;;;8.30;100.00;95221.78;5088651;28;20602;-71
2022/05/05 05:24:51;;;;;;;36.67;19.43;;;;;;;8.32;100.00;95225.78;5088250;28;20196;-71
2022/05/05 05:27:18;;;;;;;36.97;19.23;;;;;;;8.48;100.00;95225.47;5088730;28;20231;-72
2022/05/05 05:29:45;;;;;;;36.77;20.13;;;;;;;8.69;100.00;95221.19;5088599;28;20200;-72
2022/05/05 05:32:12;;;;;;;34.17;19.73;;;;;;;8.84;100.00;95222.69;5089113;28;20230;-71
2022/05/05 05:34:41;;;;;;;34.50;19.63;;;;;;;9.03;100.00;95237.50;5089365;28;20284;-71
2022/05/05 05:37:08;;;;;;;37.13;19.97;;;;;;;9.15;100.00;95242.94;5088749;28;20279;-71
2022/05/05 05:39:35;;;;;;;36.07;19.70;;;;;;;9.27;100.00;95237.97;5088871;28;20200;-72
2022/05/05 05:42:01;;;;;;;39.80;20.60;;;;;;;9.35;100.00;95250.78;5088240;28;20212;-72
2022/05/05 05:44:28;;;;;;;40.30;20.07;;;;;;;9.28;100.00;95240.41;5088169;28;20207;-72
2022/05/05 05:46:55;;;;;;;43.53;21.20;;;;;;;9.30;100.00;95253.97;5087884;28;20616;-72
2022/05/05 05:49:22;;;;;;;39.87;20.97;;;;;;;9.38;100.00;95253.00;5088537;28;20236;-70
2022/05/05 05:51:50;;;;;;;38.97;21.10;;;;;;;9.40;100.00;95254.41;5087801;28;20593;-72
2022/05/05 05:54:19;;;;;;;35.77;20.27;;;;;;;9.38;100.00;95248.59;5085718;28;20212;-71
2022/05/05 05:56:46;;;;;;;41.87;20.63;;;;;;;9.44;100.00;95255.59;5087671;28;20193;-72
2022/05/05 05:59:13;;;;;;;36.83;20.17;;;;;;;9.52;100.00;95239.06;5088042;28;20196;-75
2022/05/05 06:04:24;;;;;;;39.00;19.27;;;;;;;9.81;100.00;95243.91;5086926;28;20196;-71
2022/05/05 06:06:53;;;;;;;34.67;19.63;;;;;;;9.95;100.00;95242.91;5088332;28;20204;-73
2022/05/05 06:09:19;;;;;;;34.13;20.43;;;;;;;10.01;100.00;95252.50;5088723;28;20196;-70
2022/05/05 06:11:46;;;;;;;38.27;20.90;;;;;;;10.04;100.00;95257.28;5088436;28;20215;-72
2022/05/05 06:14:14;;;;;;;38.73;20.97;;;;;;;10.08;100.00;95262.88;5089418;28;20282;-71
2022/05/05 06:16:40;;;;;;;39.97;20.83;;;;;;;10.19;100.00;95257.09;5088243;28;20193;-73
2022/05/05 06:19:07;;;;;;;38.57;22.27;;;;;;;10.29;100.00;95257.50;5088667;28;20705;-72
2022/05/05 06:21:34;;;;;;;43.03;22.93;;;;;;;10.27;100.00;95253.53;5088093;28;20223;-73
2022/05/05 06:24:04;;;;;;;42.00;22.37;;;;;;;10.24;100.00;95245.09;5086513;28;20200;-81
2022/05/05 06:26:32;;;;;;;44.83;21.57;;;;;;;10.32;100.00;95251.91;5087183;28;20578;-83
2022/05/05 06:28:59;;;;;;;39.70;23.03;;;;;;;10.41;100.00;95250.72;5089425;28;20207;-82
2022/05/05 06:31:26;;;;;;;41.03;22.60;;;;;;;10.33;100.00;95250.13;5089197;28;20192;-81
2022/05/05 06:33:53;;;;;;;38.53;22.67;;;;;;;9.88;100.00;95249.06;5089227;28;20278;-81
2022/05/05 06:36:20;;;;;;;39.10;22.30;;;;;;;9.47;100.00;95239.63;5088905;28;20262;-80
2022/05/05 06:38:47;;;;;;;41.10;22.67;;;;;;;9.04;100.00;95239.09;5088147;28;20192;-80
2022/05/05 06:41:15;;;;;;;45.27;24.63;;;;;;;9.17;100.00;95243.56;5088641;28;20655;-82
2022/05/05 06:43:42;;;;;;;47.83;24.77;;;;;;;9.39;100.00;95236.41;5088423;28;20200;-79
2022/05/05 06:46:09;;;;;;;47.77;26.60;;;;;;;9.30;100.00;95235.00;5087037;28;20570;-76
2022/05/05 06:48:37;;;;;;;48.60;27.67;;;;;;;9.20;100.00;95247.56;5086871;28;20197;-78
2022/05/05 06:51:04;;;;;;;53.67;28.40;;;;;;;9.19;100.00;95238.97;5085443;28;20192;-78
2022/05/05 06:53:31;;;;;;;49.10;27.13;;;;;;;9.40;100.00;95245.81;5086550;28;20223;-78
2022/05/05 06:55:58;;;;;;;53.50;28.53;;;;;;;9.59;100.00;95245.03;5084196;28;20201;-78
2022/05/05 06:58:27;;;;;;;53.23;28.57;;;;;;;9.47;100.00;95246.63;5087616;28;20928;-79
2022/05/05 07:03:38;;;;;;;49.13;28.97;;;;;;;9.32;100.00;95246.00;5085198;28;20683;-77
2022/05/05 07:06:10;;;;;;;55.70;28.73;;;;;;;9.55;100.00;95252.41;5086010;28;20200;-77
2022/05/05 07:11:21;;;;;;;44.43;27.77;;;;;;;9.70;100.00;95253.06;5074992;28;20195;-77
2022/05/05 07:13:50;;;;;;;50.73;28.27;;;;;;;9.64;100.00;95248.66;5071482;28;20220;-82
2022/05/05 07:16:17;;;;;;;51.93;29.13;;;;;;;9.73;100.00;95248.47;5085603;28;20197;-78
2022/05/05 07:18:44;;;;;;;46.70;27.10;;;;;;;9.90;100.00;95252.28;5075075;28;20680;-77
2022/05/05 07:21:11;;;;;;;52.37;28.40;;;;;;;10.09;100.00;95259.28;5083884;28;20574;-76
2022/05/05 07:23:38;;;;;;;49.90;27.87;;;;;;;10.12;100.00;95253.69;5085074;28;20248;-76
2022/05/05 07:26:04;;;;;;;49.37;27.47;;;;;;;10.11;100.00;95249.50;5089500;28;20587;-77
2022/05/05 07:28:31;;;;;;;50.60;27.63;;;;;;;10.19;100.00;95250.13;5089038;28;20227;-77
2022/05/05 07:31:00;;;;;;;51.67;28.70;;;;;;;10.43;100.00;95245.31;5088634;28;20216;-77
2022/05/05 07:33:27;;;;;;;46.47;26.80;;;;;;;10.65;100.00;95246.66;5087122;28;20216;-77
2022/05/05 07:35:55;;;;;;;51.77;28.03;;;;;;;10.88;100.00;95247.00;5092157;28;20192;-76
2022/05/05 07:38:22;;;;;;;52.73;28.63;;;;;;;10.84;100.00;95251.03;5094424;28;20204;-87
2022/05/05 07:40:49;;;;;;;50.07;27.67;;;;;;;10.73;100.00;95259.47;5089114;28;20208;-90
2022/05/05 07:43:16;;;;;;;57.57;29.30;;;;;;;10.87;100.00;95261.03;5096005;28;20192;-90
2022/05/05 07:45:43;;;;;;;75.57;30.20;;;;;;;11.07;100.00;95260.94;5095112;28;20196;-76
2022/05/05 07:48:12;;;;;;;51.17;28.57;;;;;;;11.27;100.00;95262.47;5094272;28;20394;-77
2022/05/05 07:50:39;;;;;;;54.13;29.53;;;;;;;11.39;100.00;95268.63;5093436;28;20208;-76
2022/05/05 07:53:06;;;;;;;59.13;30.07;;;;;;;11.30;100.00;95266.47;5092236;28;20221;-77
2022/05/05 07:55:33;;;;;;;55.33;29.67;;;;;;;11.20;100.00;95261.69;5092895;28;20193;-78
2022/05/05 07:57:59;;;;;;;50.00;27.90;;;;;;;11.38;100.00;95266.22;5090748;28;20578;-78
2022/05/05 08:00:26;;;;;;;49.37;28.33;;;;;;;11.58;100.00;95269.53;5093027;28;20550;-78
2022/05/05 08:02:53;;;;;;;49.43;27.40;;;;;;;11.74;100.00;95263.06;5092829;28;20667;-77
2022/05/05 08:05:21;;;;;;;45.43;26.03;;;;;;;11.82;100.00;95268.03;5092455;28;20204;-78
2022/05/05 08:07:49;;;;;;;42.83;23.90;;;;;;;11.78;100.00;95270.25;5091742;28;20201;-77
2022/05/05 08:10:18;;;;;;;37.93;22.50;;;;;;;11.62;100.00;95269.91;5089702;28;20288;-77
2022/05/05 08:12:46;;;;;;;41.70;22.90;;;;;;;11.78;100.00;95274.66;5092031;28;20200;-79
2022/05/05 08:15:14;;;;;;;45.23;23.17;;;;;;;12.03;100.00;95269.50;5091513;28;20714;-79
2022/05/05 08:17:41;;;;;;;39.57;23.23;;;;;;;12.26;100.00;95273.13;5092126;28;20682;-78
2022/05/05 08:20:10;;;;;;;41.13;24.50;;;;;;;12.50;100.00;95274.91;5091495;28;20277;-77
2022/05/05 08:22:39;;;;;;;44.70;25.10;;;;;;;12.77;100.00;95277.28;5090092;28;20193;-75
2022/05/05 08:30:35;;;;;;;40.43;23.90;;;;;;;12.73;100.00;95271.69;5091542;28;20200;-79
2022/05/05 08:33:01;;;;;;;43.03;23.73;;;;;;;12.94;100.00;95273.88;5090424;28;20197;-79
2022/05/05 08:35:28;;;;;;;39.00;21.87;;;;;;;13.27;100.00;95257.91;5091314;28;20611;-79
2022/05/05 08:37:57;;;;;;;37.40;20.33;;;;;;;13.50;100.00;95265.84;5090132;28;20230;-78
2022/05/05 08:40:26;;;;;;;35.47;20.83;;;;;;;13.76;100.00;95272.53;5090547;28;20269;-77
2022/05/05 08:42:53;;;;;;;35.83;20.67;;;;;;;13.90;100.00;95258.25;5091339;28;20205;-81
2022/05/05 08:45:20;;;;;;;28.97;19.03;;;;;;;13.78;100.00;95275.72;5090190;28;20687;-81
2022/05/05 08:47:48;;;;;;;31.30;18.13;;;;;;;13.51;100.00;95274.47;5089894;28;20285;-82
2022/05/05 08:50:15;;;;;;;32.80;18.50;;;;;;;13.61;100.00;95264.28;5090975;28;20732;-81
2022/05/05 08:52:48;;;;;;;35.40;19.13;;;;;;;13.96;100.00;95270.44;5089614;28;20193;-80
2022/05/05 08:55:20;;;;;;;39.67;19.87;;;;;;;14.21;100.00;95265.81;5092192;28;20204;-83
2022/05/05 08:57:47;;;;;;;30.03;17.97;;;;;;;14.55;97.50;95280.00;5091106;28;20245;-82
2022/05/05 09:00:16;;;;;;;28.33;16.90;;;;;;;14.82;94.19;95280.34;5090805;28;20296;-79
2022/05/05 09:02:43;;;;;;;31.37;17.33;;;;;;;15.04;94.02;95277.91;5090781;28;20205;-77
2022/05/05 09:05:10;;;;;;;28.17;17.43;;;;;;;15.24;93.22;95275.72;5092142;28;20215;-79
2022/05/05 09:07:48;;;;;;;26.63;15.30;;;;;;;15.47;91.06;95280.16;5089551;28;20196;-79
2022/05/05 09:10:17;;;;;;;27.73;17.63;;;;;;;15.76;88.90;95273.88;5091286;28;20228;-79
2022/05/05 09:12:58;;;;;;;31.47;17.00;;;;;;;15.98;86.68;95276.66;5090487;28;20275;-79
2022/05/05 09:15:31;;;;;;;41.80;19.00;;;;;;;16.21;86.77;95273.91;5090818;28;20324;-80
2022/05/05 09:18:12;;;;;;;31.00;18.23;;;;;;;16.42;87.42;95271.34;5091030;28;20640;-78
2022/05/05 09:20:39;;;;;;;32.07;18.30;;;;;;;16.66;84.59;95271.22;5088720;28;20221;-79
2022/05/05 09:23:06;;;;;;;34.30;18.30;;;;;;;16.78;85.63;95266.69;5091777;28;20197;-78
2022/05/05 09:25:48;;;;;;;34.53;18.97;;;;;;;16.96;84.59;95271.66;5090811;28;20204;-79
2022/05/05 09:28:19;;;;;;;31.83;19.63;;;;;;;17.12;84.48;95264.78;5093624;28;20203;-79
2022/05/05 09:30:47;;;;;;;32.93;19.17;;;;;;;17.28;82.02;95269.19;5092270;28;20349;-79
2022/05/05 09:33:16;;;;;;;28.97;17.47;;;;;;;17.40;80.07;95269.88;5092002;28;20228;-78
2022/05/05 09:35:44;;;;;;;28.33;15.97;;;;;;;17.57;79.13;95268.00;5090885;28;20193;-80
2022/05/05 09:38:11;;;;;;;25.17;15.00;;;;;;;17.60;76.63;95262.25;5090112;28;20205;-79
2022/05/05 09:40:38;;;;;;;19.03;14.00;;;;;;;17.80;74.42;95267.72;5088993;28;20613;-85
2022/05/05 09:43:10;;;;;;;20.08;12.52;;;;;;;17.93;74.43;95264.69;5091369;28;20196;-85
2022/05/05 09:45:38;;;;;;;15.67;10.90;;;;;;;18.10;71.70;95272.47;5089348;28;20196;-86
2022/05/05 09:48:06;;;;;;;15.10;10.40;;;;;;;18.25;70.30;95266.56;5088685;28;20193;-85
2022/05/05 09:50:34;;;;;;;13.23;8.83;;;;;;;18.45;69.53;95264.09;5090596;28;20206;-85
2022/05/05 09:58:35;;;;;;;13.13;8.48;;;;;;;19.04;66.43;95247.16;5086225;28;20224;-85
2022/05/05 10:01:08;;;;;;;14.32;8.23;;;;;;;19.30;66.10;95248.06;5087704;28;20196;-86
2022/05/05 10:04:03;;;;;;;9.63;6.85;;;;;;;19.47;63.00;95245.25;5090742;28;20192;-85
2022/05/05 10:06:32;;;;;;;10.18;7.22;;;;;;;19.66;63.36;95233.19;5089956;28;20212;-85
2022/05/05 10:09:02;;;;;;;11.27;7.32;;;;;;;19.83;61.71;95233.75;5089431;28;20196;-86
2022/05/05 10:11:30;;;;;;;12.18;6.22;;;;;;;19.93;61.93;95223.22;5089940;28;20200;-83
2022/05/05 10:14:00;;;;;;;11.15;6.47;;;;;;;20.18;60.77;95235.66;5087324;28;20775;-84
2022/05/05 10:16:30;;;;;;;10.25;6.57;;;;;;;20.34;62.49;95234.66;5088784;28;20203;-83
2022/05/05 10:18:57;;;;;;;11.43;5.28;;;;;;;19.97;61.98;95234.81;5090501;28;20311;-83
2022/05/05 10:21:44;;;;;;;16.73;4.97;;;;;;;19.55;63.08;95239.47;5088886;28;20204;-84
2022/05/05 10:24:17;;;;;;;6.20;4.35;;;;;;;19.18;61.83;95239.56;5090296;28;20189;-84
2022/05/05 10:26:50;;;;;;;8.77;4.57;;;;;;;19.63;63.09;95242.41;5086596;28;20284;-84
2022/05/05 10:29:38;;;;;;;8.32;4.80;;;;;;;20.25;61.55;95239.66;5089900;28;20200;-84
2022/05/05 10:32:11;;;;;;;7.60;4.38;;;;;;;20.75;60.13;95233.53;5090595;28;20276;-84
2022/05/05 10:34:39;;;;;;;8.38;4.10;;;;;;;21.30;57.57;95235.28;5088285;28;20216;-85
2022/05/05 10:37:08;;;;;;;5.95;3.60;;;;;;;21.75;55.36;95238.78;5089680;28;20566;-86
2022/05/05 10:39:46;;;;;;;7.40;3.90;;;;;;;22.11;52.85;95240.19;5089164;28;20193;-87
2022/05/05 10:42:18;;;;;;;5.25;3.30;;;;;;;22.51;51.23;95237.22;5089316;28;20686;-84
2022/05/05 10:45:09;;;;;;;4.00;3.60;;;;;;;22.79;46.39;95248.16;5087021;28;20204;-84
2022/05/05 10:48:16;;;;;;;5.60;3.60;;;;;;;23.03;44.88;95249.75;5088292;28;20287;-86
2022/05/05 10:50:56;;;;;;;5.05;3.35;;;;;;;22.98;45.20;95241.06;5085813;28;20232;-82
2022/05/05 10:53:33;;;;;;;4.43;3.22;;;;;;;23.09;45.63;95239.88;5085433;28;20193;-84
2022/05/05 10:56:01;;;;;;;7.55;3.60;;;;;;;23.35;45.96;95235.13;5084012;28;20628;-84
2022/05/05 10:58:56;;;;;;;3.90;3.03;;;;;;;23.55;45.50;95245.53;5087411;28;20199;-87
2022/05/05 11:01:25;;;;;;;3.55;3.00;;;;;;;23.65;44.58;95242.72;5085810;28;20631;-82
2022/05/05 11:04:25;;;;;;;4.57;3.30;;;;;;;23.82;44.11;95243.03;5085551;28;20197;-83
2022/05/05 11:07:36;;;;;;;10.27;3.97;;;;;;;24.07;45.25;95234.69;5042935;28;20194;-85
2022/05/05 11:10:07;;;;;;;4.53;3.28;;;;;;;24.11;43.92;95235.75;5085021;28;20193;-86
2022/05/05 11:12:36;;;;;;;8.68;3.30;;;;;;;24.41;44.07;95234.50;5089106;28;20185;-84
2022/05/05 11:23:44;;;;;;;6.60;3.53;;;;;;;23.58;44.04;95240.41;5086093;28;20253;-85
2022/05/05 11:26:15;;;;;;;4.05;3.00;;;;;;;23.29;44.48;95244.97;5088646;28;20203;-85
2022/05/05 11:28:42;;;;;;;6.78;3.50;;;;;;;23.00;46.10;95239.72;5087356;28;20204;-85
2022/05/05 11:31:22;;;;;;;6.60;3.15;;;;;;;22.64;45.82;95243.78;5089529;28;20193;-85
2022/05/05 11:33:53;;;;;;;5.57;3.30;;;;;;;22.31;47.69;95242.69;5089378;28;20197;-86
2022/05/05 11:36:20;;;;;;;7.55;2.80;;;;;;;22.10;47.21;95227.22;5085898;28;20625;-86
2022/05/05 11:38:46;;;;;;;4.25;2.88;;;;;;;22.31;45.73;95228.66;5087755;28;20201;-85
2022/05/05 11:41:18;;;;;;;4.07;2.97;;;;;;;22.79;45.03;95232.25;5087356;28;20820;-85
2022/05/05 11:46:31;;;;;;;7.00;2.60;;;;;;;23.88;43.58;95244.53;5087071;28;20253;-86
2022/05/05 11:48:59;;;;;;;4.53;3.00;;;;;;;24.13;42.17;95236.22;5088182;28;20189;-86
2022/05/05 11:51:27;;;;;;;5.65;3.85;;;;;;;24.17;40.52;95233.81;5089266;28;20224;-86
2022/05/05 11:54:07;;;;;;;5.18;3.20;;;;;;;24.34;40.22;95225.28;5086829;28;20275;-86
2022/05/05 11:56:35;;;;;;;5.13;2.60;;;;;;;24.56;39.23;95228.16;5089349;28;20541;-86
2022/05/05 12:02:05;;;;;;;5.68;2.40;;;;;;;24.74;38.08;95224.63;5088239;28;20210;-86
2022/05/05 12:04:36;;;;;;;3.78;2.97;;;;;;;24.84;38.67;95216.53;5089203;28;20194;-85
2022/05/05 12:07:03;;;;;;;3.63;2.78;;;;;;;25.01;38.89;95218.59;5088460;28;20197;-88
2022/05/05 12:09:30;;;;;;;5.32;3.47;;;;;;;24.77;39.77;95222.19;5087162;28;20632;-86
2022/05/05 12:11:57;;;;;;;5.35;3.10;;;;;;;25.12;39.34;95212.81;5088978;28;20212;-87